Time;durP1;ratioP1;P1;durP2;ratioP2;P2;SDS_P1;SDS_P2;PMS_P1;PMS_P2;Temp;Humidity;BMP_temperature;BMP_pressure;BME280_temperature;BME280_humidity;BME280_pressure;Samples;Min_cycle;Max_cycle;Signal;HPM_P1;HPM_P2
2022/04/14 00:01:24;;;;;;;7.68;4.47;;;12.20;94.20;;;;;;5009401;28;20053;-72
2022/04/14 00:03:50;;;;;;;7.50;3.60;;;12.10;94.30;;;;;;5004103;28;20058;-72
2022/04/14 00:06:16;;;;;;;8.63;3.92;;;12.00;94.50;;;;;;5008381;28;20122;-72
2022/04/14 00:08:41;;;;;;;9.70;5.03;;;11.90;94.60;;;;;;5006518;28;20083;-72
2022/04/14 00:11:08;;;;;;;8.95;4.28;;;12.00;94.50;;;;;;5009313;28;20108;-72
2022/04/14 00:13:34;;;;;;;15.07;4.80;;;12.00;94.60;;;;;;5009611;28;20076;-72
2022/04/14 00:15:59;;;;;;;7.40;3.88;;;12.00;94.60;;;;;;5008637;28;20065;-73
2022/04/14 00:18:25;;;;;;;8.88;4.68;;;11.90;94.80;;;;;;5004493;28;20117;-72
2022/04/14 00:20:51;;;;;;;10.07;5.50;;;11.90;94.90;;;;;;5012867;28;20479;-72
2022/04/14 00:23:16;;;;;;;12.07;5.20;;;11.80;95.00;;;;;;5001123;28;20379;-72
2022/04/14 00:25:42;;;;;;;10.27;5.57;;;11.70;95.00;;;;;;5009631;28;20045;-72
2022/04/14 00:28:07;;;;;;;9.73;4.15;;;11.70;95.10;;;;;;5004851;28;20027;-72
2022/04/14 00:30:33;;;;;;;7.85;4.78;;;11.70;95.10;;;;;;5010374;28;20056;-72
2022/04/14 00:32:59;;;;;;;8.95;4.32;;;11.70;95.00;;;;;;5006264;28;20085;-72
2022/04/14 00:35:24;;;;;;;9.10;3.75;;;11.60;95.00;;;;;;5007280;28;20034;-72
2022/04/14 00:37:50;;;;;;;9.00;5.32;;;11.70;95.00;;;;;;5009493;28;20531;-72
2022/04/14 00:40:16;;;;;;;9.35;4.65;;;11.70;95.10;;;;;;5007681;28;20040;-72
2022/04/14 00:42:41;;;;;;;12.30;5.28;;;11.70;95.10;;;;;;5007461;28;20037;-72
2022/04/14 00:45:09;;;;;;;7.07;4.55;;;11.80;94.90;;;;;;5009433;28;20507;-72
2022/04/14 00:47:38;;;;;;;10.88;4.72;;;11.70;94.90;;;;;;5006291;28;20510;-72
2022/04/14 00:50:04;;;;;;;7.57;4.53;;;11.70;94.90;;;;;;5013193;28;20077;-72
2022/04/14 00:52:30;;;;;;;12.88;3.83;;;11.80;94.90;;;;;;5006202;28;20042;-72
2022/04/14 00:54:56;;;;;;;12.95;5.75;;;11.80;94.80;;;;;;5005406;28;20029;-72
2022/04/14 00:57:21;;;;;;;8.10;4.22;;;11.80;94.70;;;;;;5010202;28;20030;-72
2022/04/14 00:59:47;;;;;;;11.02;4.75;;;11.80;94.80;;;;;;5009179;28;20088;-72
2022/04/14 01:02:13;;;;;;;7.57;3.88;;;11.80;94.90;;;;;;5009980;28;20037;-72
2022/04/14 01:04:40;;;;;;;8.55;4.10;;;11.70;95.10;;;;;;5001594;28;20057;-72
2022/04/14 01:07:07;;;;;;;7.63;3.90;;;11.70;95.20;;;;;;5004881;28;20037;-72
2022/04/14 01:09:34;;;;;;;10.77;5.20;;;11.50;95.40;;;;;;5006754;28;20036;-72
2022/04/14 01:12:00;;;;;;;8.90;3.75;;;11.40;95.50;;;;;;5000467;28;20061;-72
2022/04/14 01:14:31;;;;;;;10.50;4.13;;;11.50;95.50;;;;;;5001945;28;20481;-72
2022/04/14 01:17:00;;;;;;;6.35;4.45;;;11.50;95.60;;;;;;5007971;28;20054;-72
2022/04/14 01:19:26;;;;;;;9.38;3.90;;;11.60;95.30;;;;;;5000096;28;20443;-72
2022/04/14 01:22:07;;;;;;;6.25;3.85;;;11.50;95.50;;;;;;5000228;28;20033;-72
2022/04/14 01:24:34;;;;;;;7.45;3.75;;;11.40;95.70;;;;;;5000660;28;20033;-72
2022/04/14 01:27:00;;;;;;;8.10;3.80;;;11.50;95.50;;;;;;5002423;28;20347;-72
2022/04/14 01:29:27;;;;;;;7.13;4.35;;;11.40;95.50;;;;;;5006597;28;20088;-72
2022/04/14 01:31:55;;;;;;;8.13;3.83;;;11.40;95.50;;;;;;5009723;28;20389;-72
2022/04/14 01:34:20;;;;;;;9.00;4.00;;;11.60;95.40;;;;;;4998937;28;20038;-72
2022/04/14 01:36:46;;;;;;;6.80;3.92;;;11.40;95.40;;;;;;5011275;28;20092;-72
2022/04/14 01:39:13;;;;;;;9.57;4.20;;;11.50;95.50;;;;;;5002917;28;20030;-72
2022/04/14 01:41:39;;;;;;;10.80;4.57;;;11.60;95.40;;;;;;5011880;28;20030;-72
2022/04/14 01:44:06;;;;;;;6.68;4.03;;;11.80;95.10;;;;;;5006317;28;20488;-72
2022/04/14 01:46:32;;;;;;;6.57;3.95;;;11.60;94.90;;;;;;5001610;28;20030;-72
2022/04/14 01:48:59;;;;;;;10.68;4.40;;;11.30;95.00;;;;;;5007368;28;20044;-72
2022/04/14 01:51:26;;;;;;;9.07;4.53;;;11.00;95.60;;;;;;5009954;28;20026;-72
2022/04/14 01:53:52;;;;;;;8.48;4.25;;;11.10;95.50;;;;;;5010365;28;20069;-72
2022/04/14 01:56:18;;;;;;;10.68;6.07;;;10.90;95.60;;;;;;5006206;28;20037;-72
2022/04/14 01:58:44;;;;;;;14.60;5.75;;;11.10;96.00;;;;;;5004053;28;20092;-72
2022/04/14 02:01:10;;;;;;;9.60;5.43;;;11.20;95.70;;;;;;5003008;28;20041;-72
2022/04/14 02:03:36;;;;;;;10.07;5.25;;;11.20;95.60;;;;;;5008137;28;20506;-72
2022/04/14 02:06:01;;;;;;;10.60;5.57;;;11.00;95.90;;;;;;5005229;28;20042;-72
2022/04/14 02:08:27;;;;;;;8.82;4.40;;;11.50;95.70;;;;;;4995903;28;20038;-72
2022/04/14 02:10:53;;;;;;;8.13;5.00;;;11.70;94.80;;;;;;5004827;28;20392;-72
2022/04/14 02:13:19;;;;;;;12.30;5.22;;;11.70;94.50;;;;;;5002561;28;20046;-72
2022/04/14 02:15:44;;;;;;;11.27;5.90;;;11.50;95.00;;;;;;4999686;28;20522;-72
2022/04/14 02:18:10;;;;;;;10.88;4.75;;;11.80;95.20;;;;;;5009029;28;20396;-72
2022/04/14 02:20:36;;;;;;;7.20;4.00;;;11.80;94.90;;;;;;5003965;28;20109;-72
2022/04/14 02:23:01;;;;;;;6.95;4.32;;;11.70;94.90;;;;;;5001616;28;20392;-72
2022/04/14 02:25:27;;;;;;;8.60;3.78;;;11.70;94.70;;;;;;5003690;28;20030;-72
2022/04/14 02:27:52;;;;;;;6.32;3.70;;;11.70;94.60;;;;;;5004094;28;20034;-72
2022/04/14 02:30:18;;;;;;;9.20;3.63;;;11.50;94.50;;;;;;5006366;28;20030;-72
2022/04/14 02:32:44;;;;;;;7.35;4.10;;;11.60;94.70;;;;;;5006259;28;20373;-72
2022/04/14 02:35:10;;;;;;;9.32;4.22;;;11.60;94.60;;;;;;5005045;28;20492;-72
2022/04/14 02:37:36;;;;;;;9.40;4.70;;;11.70;94.60;;;;;;5007880;28;20473;-72
2022/04/14 02:40:03;;;;;;;9.13;4.45;;;11.70;94.70;;;;;;5005241;28;20026;-72
2022/04/14 02:42:28;;;;;;;10.35;4.50;;;11.60;95.00;;;;;;5009599;28;20388;-72
2022/04/14 02:44:54;;;;;;;10.15;4.88;;;11.60;95.00;;;;;;5009965;28;20030;-72
2022/04/14 02:47:20;;;;;;;12.13;4.35;;;11.60;95.10;;;;;;5003506;28;20049;-72
2022/04/14 02:49:45;;;;;;;8.55;4.47;;;11.60;95.10;;;;;;5003425;28;20434;-72
2022/04/14 02:52:11;;;;;;;8.43;4.18;;;11.60;95.00;;;;;;5007932;28;20037;-72
2022/04/14 02:54:39;;;;;;;8.95;4.00;;;11.40;95.10;;;;;;5002502;28;20061;-72
2022/04/14 02:57:09;;;;;;;9.43;4.05;;;11.40;95.20;;;;;;5005454;28;20037;-72
2022/04/14 02:59:36;;;;;;;9.93;4.90;;;11.10;95.20;;;;;;5000351;28;20549;-72
2022/04/14 03:02:03;;;;;;;7.57;4.18;;;11.10;95.60;;;;;;5006428;28;20037;-71
2022/04/14 03:04:30;;;;;;;7.82;4.15;;;11.20;95.30;;;;;;4994698;28;20053;-72
2022/04/14 03:06:56;;;;;;;10.15;4.55;;;11.20;95.50;;;;;;4997146;28;20041;-72
2022/04/14 03:09:22;;;;;;;8.63;4.55;;;11.30;95.20;;;;;;5000999;28;20824;-72
2022/04/14 03:11:48;;;;;;;8.10;4.85;;;11.60;95.20;;;;;;4990382;28;20034;-72
2022/04/14 03:14:14;;;;;;;11.40;6.68;;;11.60;95.00;;;;;;4996938;28;20046;-72
2022/04/14 03:16:39;;;;;;;9.48;4.80;;;11.70;94.80;;;;;;4997662;28;20138;-72
2022/04/14 03:19:05;;;;;;;7.72;4.40;;;11.30;95.30;;;;;;5004951;28;20076;-72
2022/04/14 03:21:31;;;;;;;9.63;5.10;;;11.00;95.60;;;;;;5002377;28;20034;-72
2022/04/14 03:23:56;;;;;;;7.78;4.65;;;11.10;95.70;;;;;;5003168;28;20050;-72
2022/04/14 03:26:22;;;;;;;8.23;4.13;;;11.10;95.60;;;;;;5006040;28;20018;-72
2022/04/14 03:28:48;;;;;;;10.95;4.82;;;11.00;95.60;;;;;;4997621;28;20030;-72
2022/04/14 03:31:13;;;;;;;9.10;5.05;;;11.10;95.80;;;;;;5003883;28;20034;-72
2022/04/14 03:33:39;;;;;;;9.23;6.57;;;11.30;95.90;;;;;;5010081;28;20034;-72
2022/04/14 03:36:05;;;;;;;12.45;5.38;;;11.30;96.50;;;;;;5003743;28;20061;-72
2022/04/14 03:38:31;;;;;;;10.02;5.30;;;11.00;96.00;;;;;;5005006;28;20036;-72
2022/04/14 03:40:59;;;;;;;11.98;5.38;;;11.00;95.90;;;;;;5007730;28;20044;-72
2022/04/14 03:43:25;;;;;;;12.55;4.65;;;11.00;96.00;;;;;;5011102;28;20472;-72
2022/04/14 03:45:50;;;;;;;9.07;5.13;;;10.90;95.80;;;;;;5005863;28;20042;-72
2022/04/14 03:48:16;;;;;;;9.95;5.65;;;10.90;96.20;;;;;;5009712;28;20124;-72
2022/04/14 03:50:41;;;;;;;10.73;5.03;;;11.00;96.00;;;;;;5005939;28;20038;-72
2022/04/14 03:53:07;;;;;;;13.02;5.07;;;10.80;95.70;;;;;;5005383;28;20391;-72
2022/04/14 03:55:33;;;;;;;10.07;5.30;;;10.50;96.30;;;;;;5006116;28;20662;-72
2022/04/14 03:57:58;;;;;;;8.80;5.13;;;10.20;96.80;;;;;;5003523;28;20120;-72
2022/04/14 04:00:24;;;;;;;9.48;4.60;;;10.10;96.90;;;;;;4998175;28;20030;-72
2022/04/14 04:02:49;;;;;;;9.70;5.45;;;10.20;96.90;;;;;;5001762;28;20498;-72
2022/04/14 04:05:15;;;;;;;12.23;5.13;;;10.10;97.00;;;;;;5001277;28;20073;-72
2022/04/14 04:07:41;;;;;;;18.63;4.70;;;10.00;97.20;;;;;;5007212;28;20484;-72
2022/04/14 04:10:07;;;;;;;13.18;5.55;;;10.10;97.20;;;;;;5001851;28;20032;-72
2022/04/14 04:12:32;;;;;;;12.07;5.35;;;10.10;97.40;;;;;;5002757;28;20042;-72
2022/04/14 04:14:58;;;;;;;8.75;5.68;;;10.10;97.50;;;;;;5008006;28;20075;-72
2022/04/14 04:17:24;;;;;;;9.85;5.25;;;10.20;97.80;;;;;;5006303;28;20040;-72
2022/04/14 04:19:49;;;;;;;13.68;5.47;;;10.60;97.20;;;;;;4997714;28;20038;-72
2022/04/14 04:22:15;;;;;;;13.95;6.85;;;10.80;97.00;;;;;;5006768;28;20034;-72
2022/04/14 04:24:59;;;;;;;8.38;5.07;;;11.00;97.50;;;;;;4999913;28;20824;-72
2022/04/14 04:27:26;;;;;;;10.52;5.63;;;10.90;96.90;;;;;;5004675;28;20038;-72
2022/04/14 04:29:52;;;;;;;11.93;5.80;;;10.90;97.00;;;;;;4991150;28;20374;-72
2022/04/14 04:32:18;;;;;;;10.20;4.88;;;10.80;96.90;;;;;;5005307;28;20049;-72
2022/04/14 04:34:44;;;;;;;7.60;4.53;;;10.60;97.10;;;;;;4993930;28;20530;-72
2022/04/14 04:37:10;;;;;;;8.65;5.32;;;10.70;97.00;;;;;;4996463;28;20038;-72
2022/04/14 04:39:35;;;;;;;6.90;4.15;;;10.40;97.60;;;;;;4999317;28;20061;-72
2022/04/14 04:42:01;;;;;;;11.82;6.32;;;10.30;97.60;;;;;;5001294;28;20105;-72
2022/04/14 04:44:27;;;;;;;10.45;5.47;;;10.40;98.10;;;;;;4987698;28;21780;-72
2022/04/14 04:46:52;;;;;;;10.23;4.85;;;10.40;97.80;;;;;;4976914;28;20030;-72
2022/04/14 04:49:18;;;;;;;10.77;5.25;;;10.40;97.60;;;;;;4976012;28;20035;-72
2022/04/14 04:51:43;;;;;;;15.38;8.00;;;10.50;97.80;;;;;;4992947;28;20030;-74
2022/04/14 04:54:09;;;;;;;12.55;5.95;;;10.80;98.00;;;;;;4987136;28;20096;-74
2022/04/14 04:56:35;;;;;;;12.07;5.93;;;10.90;97.40;;;;;;4990914;28;20618;-74
2022/04/14 04:59:01;;;;;;;9.27;4.88;;;10.70;97.60;;;;;;4981387;28;20168;-74
2022/04/14 05:01:26;;;;;;;13.52;6.10;;;10.50;97.80;;;;;;4981653;28;20080;-74
2022/04/14 05:03:52;;;;;;;17.17;6.20;;;10.60;97.60;;;;;;4990683;28;20038;-74
2022/04/14 05:06:18;;;;;;;9.73;4.75;;;10.60;98.10;;;;;;4998606;28;20116;-74
2022/04/14 05:08:44;;;;;;;11.57;5.50;;;10.60;97.60;;;;;;4997129;28;20465;-74
2022/04/14 05:11:09;;;;;;;11.82;6.45;;;10.50;97.80;;;;;;4992718;28;20033;-75
2022/04/14 05:13:35;;;;;;;8.82;4.55;;;10.70;98.20;;;;;;4994296;28;20156;-74
2022/04/14 05:16:02;;;;;;;12.80;6.03;;;10.60;97.70;;;;;;4986408;28;20097;-74
2022/04/14 05:18:28;;;;;;;10.55;5.88;;;10.70;97.80;;;;;;4981182;28;20053;-74
2022/04/14 05:20:54;;;;;;;10.75;5.88;;;10.70;97.90;;;;;;4989717;28;20502;-74
2022/04/14 05:23:19;;;;;;;10.48;5.57;;;10.80;97.80;;;;;;4992258;28;20038;-74
2022/04/14 05:25:45;;;;;;;8.63;4.88;;;10.70;97.60;;;;;;4994244;28;20436;-74
2022/04/14 05:28:11;;;;;;;6.28;4.10;;;10.60;97.80;;;;;;4977804;28;20037;-74
2022/04/14 05:30:36;;;;;;;11.35;4.68;;;10.40;98.20;;;;;;4976367;28;21093;-74
2022/04/14 05:33:02;;;;;;;7.55;4.20;;;10.30;98.40;;;;;;4983295;28;20041;-75
2022/04/14 05:35:28;;;;;;;9.38;5.38;;;10.30;98.60;;;;;;4984209;28;20031;-76
2022/04/14 05:37:53;;;;;;;9.52;4.88;;;10.40;98.60;;;;;;4991304;28;20030;-75
2022/04/14 05:40:19;;;;;;;7.72;3.90;;;10.50;98.20;;;;;;4999621;28;20422;-75
2022/04/14 05:42:48;;;;;;;9.13;4.53;;;10.50;98.30;;;;;;4998452;28;20058;-76
2022/04/14 05:45:14;;;;;;;10.23;4.93;;;10.60;98.30;;;;;;5001388;28;20468;-75
2022/04/14 05:47:40;;;;;;;13.95;6.25;;;10.40;98.90;;;;;;5001726;28;20091;-76
2022/04/14 05:50:06;;;;;;;13.80;7.68;;;10.30;99.30;;;;;;4998671;28;20067;-76
2022/04/14 05:52:32;;;;;;;8.18;5.65;;;10.10;99.90;;;;;;4994765;28;20077;-75
2022/04/14 05:55:03;;;;;;;13.52;4.57;;;10.20;99.80;;;;;;5001000;28;20372;-75
2022/04/14 05:57:29;;;;;;;8.57;4.20;;;10.00;99.70;;;;;;5003531;28;20044;-75
2022/04/14 05:59:56;;;;;;;8.35;4.07;;;10.10;99.60;;;;;;4996680;28;20093;-75
2022/04/14 06:02:22;;;;;;;9.57;5.18;;;10.20;99.50;;;;;;4995973;28;20038;-75
2022/04/14 06:04:47;;;;;;;12.38;5.22;;;10.40;99.30;;;;;;5003837;28;20057;-75
2022/04/14 06:07:13;;;;;;;8.98;4.63;;;10.70;98.70;;;;;;4994228;28;20466;-75
2022/04/14 06:09:38;;;;;;;9.93;5.68;;;10.80;98.30;;;;;;4999476;28;20038;-75
2022/04/14 06:12:04;;;;;;;14.07;5.22;;;11.00;98.30;;;;;;5000326;28;20030;-75
2022/04/14 06:14:33;;;;;;;11.82;5.35;;;11.10;98.00;;;;;;4995045;28;20561;-76
2022/04/14 06:16:58;;;;;;;8.52;5.60;;;11.40;97.50;;;;;;5002804;28;20441;-75
2022/04/14 06:19:24;;;;;;;9.05;5.45;;;11.40;97.50;;;;;;4995434;28;20069;-75
2022/04/14 06:21:50;;;;;;;12.00;5.95;;;11.40;97.30;;;;;;5000904;28;20404;-75
2022/04/14 06:24:16;;;;;;;9.05;4.32;;;11.40;97.40;;;;;;5002366;28;20049;-76
2022/04/14 06:26:42;;;;;;;11.02;4.20;;;11.40;97.30;;;;;;4993981;28;20029;-76
2022/04/14 06:29:07;;;;;;;6.85;4.13;;;11.50;96.80;;;;;;5004818;28;20044;-75
2022/04/14 06:31:33;;;;;;;11.93;4.93;;;11.60;96.50;;;;;;5000441;28;20028;-75
2022/04/14 06:33:59;;;;;;;11.07;5.72;;;11.60;96.60;;;;;;4998359;28;20061;-74
2022/04/14 06:36:25;;;;;;;11.27;6.68;;;11.70;96.90;;;;;;4994743;28;20133;-75
2022/04/14 06:38:50;;;;;;;10.10;6.63;;;11.40;98.10;;;;;;4996394;28;20032;-75
2022/04/14 06:41:16;;;;;;;11.10;4.85;;;11.40;98.50;;;;;;4980297;28;20034;-75
2022/04/14 06:43:41;;;;;;;8.65;4.95;;;11.80;97.30;;;;;;4973574;28;20027;-75
2022/04/14 06:46:07;;;;;;;9.13;4.43;;;12.60;96.20;;;;;;4977152;28;20539;-75
2022/04/14 06:48:33;;;;;;;6.88;4.32;;;13.80;94.20;;;;;;4977338;28;20038;-73
2022/04/14 06:50:59;;;;;;;8.00;4.20;;;14.90;92.70;;;;;;4986005;28;20026;-75
2022/04/14 06:53:25;;;;;;;8.82;3.70;;;16.40;91.30;;;;;;4977530;28;20144;-75
2022/04/14 06:55:53;;;;;;;8.38;4.38;;;18.40;88.20;;;;;;4987500;28;20145;-73
2022/04/14 06:58:19;;;;;;;7.88;4.13;;;18.60;84.20;;;;;;4993528;28;20030;-73
2022/04/14 07:00:45;;;;;;;11.77;4.72;;;20.30;82.80;;;;;;5003327;28;20038;-73
2022/04/14 07:03:11;;;;;;;9.88;4.57;;;20.80;81.50;;;;;;4997448;28;20488;-73
2022/04/14 07:05:36;;;;;;;7.93;4.15;;;20.80;80.00;;;;;;4998650;28;20053;-73
2022/04/14 07:08:02;;;;;;;8.35;5.13;;;22.10;78.80;;;;;;4999913;28;20029;-72
2022/04/14 07:10:28;;;;;;;8.80;6.03;;;21.60;78.40;;;;;;4996400;28;20531;-73
2022/04/14 07:12:55;;;;;;;7.30;4.45;;;21.10;78.70;;;;;;4998989;28;20107;-73
2022/04/14 07:15:21;;;;;;;6.47;4.38;;;20.60;80.70;;;;;;4996472;28;20041;-73
2022/04/14 07:17:47;;;;;;;5.95;3.15;;;22.00;78.40;;;;;;5001316;28;20124;-73
2022/04/14 07:20:13;;;;;;;12.52;4.35;;;21.30;75.70;;;;;;5001718;28;20629;-73
2022/04/14 07:22:49;;;;;;;9.13;3.78;;;19.80;77.90;;;;;;5001207;28;20591;-73
2022/04/14 07:25:15;;;;;;;13.02;4.68;;;20.70;77.40;;;;;;4998691;28;20173;-73
2022/04/14 07:27:42;;;;;;;8.90;3.70;;;20.80;76.80;;;;;;4991578;28;20038;-73
2022/04/14 07:30:09;;;;;;;11.75;3.42;;;20.70;75.70;;;;;;4993799;28;20736;-73
2022/04/14 07:32:39;;;;;;;9.77;3.83;;;18.40;80.20;;;;;;5000338;28;20029;-73
2022/04/14 07:35:05;;;;;;;27.48;4.43;;;16.00;85.40;;;;;;5003436;28;20064;-73
2022/04/14 07:37:31;;;;;;;9.90;3.78;;;14.70;89.40;;;;;;5002328;28;20046;-73
2022/04/14 07:39:57;;;;;;;5.82;3.58;;;14.40;90.60;;;;;;4990807;28;20622;-72
2022/04/14 07:42:31;;;;;;;6.60;4.40;;;14.00;90.80;;;;;;5000675;28;20074;-73
2022/04/14 07:44:56;;;;;;;10.38;4.18;;;13.90;91.60;;;;;;4997039;28;20064;-73
2022/04/14 07:47:22;;;;;;;6.38;4.78;;;13.80;92.10;;;;;;5003159;28;20079;-72
2022/04/14 07:49:48;;;;;;;11.93;6.22;;;13.80;92.50;;;;;;4991630;28;20033;-73
2022/04/14 07:52:14;;;;;;;10.80;6.45;;;13.80;93.20;;;;;;5000132;28;20037;-72
2022/04/14 07:54:39;;;;;;;10.25;6.18;;;13.70;93.40;;;;;;5001976;28;20057;-72
2022/04/14 07:57:05;;;;;;;19.92;6.07;;;13.60;93.80;;;;;;5003310;28;20039;-72
2022/04/14 07:59:30;;;;;;;13.80;6.13;;;13.60;94.20;;;;;;4993340;28;20560;-73
2022/04/14 08:02:00;;;;;;;10.45;5.57;;;13.60;94.00;;;;;;5000193;28;20034;-72
2022/04/14 08:04:30;;;;;;;8.52;5.63;;;13.80;93.60;;;;;;5002611;28;20403;-72
2022/04/14 08:06:56;;;;;;;13.18;6.00;;;13.80;93.80;;;;;;5006725;28;20033;-73
2022/04/14 08:09:22;;;;;;;15.98;6.20;;;13.90;93.60;;;;;;5006831;28;20052;-76
2022/04/14 08:11:48;;;;;;;13.32;6.50;;;13.80;93.90;;;;;;5006410;28;20138;-74
2022/04/14 08:14:13;;;;;;;9.95;6.20;;;13.80;93.50;;;;;;4993404;28;20496;-74
2022/04/14 08:16:39;;;;;;;12.10;5.95;;;13.80;93.50;;;;;;4994145;28;20476;-73
2022/04/14 08:19:05;;;;;;;10.75;5.70;;;14.00;93.90;;;;;;4992040;28;20033;-74
2022/04/14 08:21:31;;;;;;;9.38;5.70;;;14.20;93.60;;;;;;4991791;28;20113;-74
2022/04/14 08:23:58;;;;;;;11.65;5.25;;;14.10;93.20;;;;;;5002884;28;20479;-74
2022/04/14 08:26:26;;;;;;;10.88;6.15;;;14.20;93.10;;;;;;4996899;28;20032;-74
2022/04/14 08:28:53;;;;;;;8.25;5.05;;;14.30;93.60;;;;;;4996385;28;20173;-74
2022/04/14 08:31:21;;;;;;;9.85;5.60;;;14.40;93.40;;;;;;5004772;28;20046;-74
2022/04/14 08:33:48;;;;;;;10.93;5.13;;;14.50;92.80;;;;;;4993072;28;20030;-74
2022/04/14 08:36:15;;;;;;;10.43;5.05;;;14.40;92.90;;;;;;4996428;28;20042;-74
2022/04/14 08:38:46;;;;;;;11.25;5.13;;;14.50;93.10;;;;;;4999308;28;20125;-74
2022/04/14 08:41:14;;;;;;;8.70;5.47;;;14.50;93.00;;;;;;5006303;28;20618;-74
2022/04/14 08:43:49;;;;;;;8.88;5.43;;;14.70;93.00;;;;;;5002991;28;20029;-74
2022/04/14 08:46:18;;;;;;;10.77;5.18;;;16.20;92.10;;;;;;5004730;28;20558;-74
2022/04/14 08:48:47;;;;;;;10.50;5.45;;;19.30;90.00;;;;;;4996203;28;20084;-73
2022/04/14 08:51:14;;;;;;;9.95;5.38;;;19.90;85.10;;;;;;5003025;28;20392;-74
2022/04/14 08:53:41;;;;;;;9.52;6.00;;;21.00;83.80;;;;;;4990572;28;20636;-74
2022/04/14 08:56:07;;;;;;;15.38;5.90;;;21.20;82.60;;;;;;4993953;28;20037;-74
2022/04/14 08:58:35;;;;;;;11.23;5.63;;;21.70;82.40;;;;;;4997489;28;20026;-74
2022/04/14 09:01:01;;;;;;;11.38;5.65;;;21.50;82.30;;;;;;5005794;28;20347;-74
2022/04/14 09:03:28;;;;;;;18.42;6.72;;;21.70;82.30;;;;;;4989024;28;20034;-74
2022/04/14 09:05:55;;;;;;;25.40;6.82;;;21.60;81.60;;;;;;5001299;28;20072;-74
2022/04/14 09:08:22;;;;;;;11.68;6.10;;;21.60;81.70;;;;;;4992607;28;20104;-74
2022/04/14 09:10:49;;;;;;;13.25;6.28;;;20.90;81.80;;;;;;4982138;28;20029;-74
2022/04/14 09:13:15;;;;;;;14.68;6.50;;;21.10;82.10;;;;;;4978653;28;20046;-74
2022/04/14 09:15:41;;;;;;;14.52;5.68;;;21.60;82.70;;;;;;4975588;28;20046;-74
2022/04/14 09:18:08;;;;;;;9.48;5.63;;;21.60;81.40;;;;;;4976109;28;20406;-74
2022/04/14 09:20:38;;;;;;;7.80;5.53;;;21.50;83.30;;;;;;4976336;28;20057;-74
2022/04/14 09:23:26;;;;;;;11.57;5.82;;;20.50;83.80;;;;;;4992097;28;20067;-74
2022/04/14 09:26:06;;;;;;;10.38;5.68;;;19.60;83.00;;;;;;4977018;28;20033;-74
2022/04/14 09:28:32;;;;;;;13.55;6.35;;;18.80;84.30;;;;;;4977918;28;20073;-74
2022/04/14 09:31:09;;;;;;;9.40;5.55;;;18.30;86.50;;;;;;4974306;28;20489;-74
2022/04/14 09:33:48;;;;;;;13.15;6.30;;;17.70;86.30;;;;;;4977841;28;20107;-74
2022/04/14 09:36:19;;;;;;;13.27;6.50;;;17.80;86.60;;;;;;4986759;28;20038;-74
2022/04/14 09:38:59;;;;;;;9.82;5.70;;;17.60;86.80;;;;;;4993160;28;20038;-74
2022/04/14 09:41:42;;;;;;;10.27;6.20;;;17.80;87.80;;;;;;5004816;28;20022;-74
2022/04/14 09:44:14;;;;;;;10.40;6.40;;;17.80;88.50;;;;;;5003649;28;20415;-74
2022/04/14 09:46:45;;;;;;;11.73;6.68;;;17.90;87.60;;;;;;5004033;28;20034;-74
2022/04/14 09:49:12;;;;;;;12.65;5.63;;;18.10;86.00;;;;;;4993659;28;20104;-74
2022/04/14 09:51:40;;;;;;;8.10;5.18;;;18.00;85.50;;;;;;5005259;28;20026;-74
2022/04/14 09:54:14;;;;;;;12.52;6.00;;;18.30;86.00;;;;;;4998682;28;20073;-74
2022/04/14 09:56:40;;;;;;;;;;;18.60;85.20;;;;;;4982845;28;20130;-74
2022/04/14 09:59:08;;;;;;;10.35;5.35;;;18.40;85.30;;;;;;4988492;28;20349;-74
2022/04/14 10:01:34;;;;;;;7.68;5.13;;;18.40;87.50;;;;;;4990570;28;20050;-74
2022/04/14 10:04:01;;;;;;;8.27;5.38;;;18.60;85.40;;;;;;5003008;28;20030;-74
2022/04/14 10:06:26;;;;;;;10.23;5.45;;;18.60;86.00;;;;;;5003647;28;20036;-74
2022/04/14 10:08:52;;;;;;;14.07;5.97;;;18.50;85.30;;;;;;5002559;28;20026;-74
2022/04/14 10:11:34;;;;;;;11.32;5.88;;;19.00;85.40;;;;;;4999638;28;20668;-74
2022/04/14 10:14:15;;;;;;;12.40;5.97;;;19.10;85.20;;;;;;4999261;28;20041;-74
2022/04/14 10:16:41;;;;;;;9.93;5.40;;;19.00;84.10;;;;;;4985908;28;20460;-74
2022/04/14 10:19:08;;;;;;;11.45;5.65;;;19.30;84.40;;;;;;4990003;28;20503;-73
2022/04/14 10:21:36;;;;;;;11.13;4.97;;;19.40;84.70;;;;;;4994063;28;20027;-74
2022/04/14 10:24:03;;;;;;;10.65;6.43;;;19.30;83.90;;;;;;4979923;28;20029;-74
2022/04/14 10:26:29;;;;;;;9.43;4.78;;;19.40;83.70;;;;;;4996039;28;20046;-75
2022/04/14 10:28:55;;;;;;;8.32;4.15;;;19.40;83.30;;;;;;4990440;28;20345;-74
2022/04/14 10:31:21;;;;;;;9.45;4.82;;;19.50;83.70;;;;;;4988629;28;20045;-75
2022/04/14 10:33:48;;;;;;;8.18;5.05;;;19.70;82.70;;;;;;4992003;28;20038;-74
2022/04/14 10:36:14;;;;;;;9.77;4.93;;;19.80;82.70;;;;;;4989954;28;20029;-74
2022/04/14 10:38:43;;;;;;;10.00;4.63;;;19.90;81.20;;;;;;4972390;28;20514;-74
2022/04/14 10:41:16;;;;;;;12.90;5.25;;;19.90;81.70;;;;;;4986745;28;20034;-74
2022/04/14 10:43:46;;;;;;;15.88;4.65;;;20.00;82.20;;;;;;4998729;28;20061;-74
2022/04/14 10:46:16;;;;;;;6.50;4.32;;;20.20;81.60;;;;;;5000312;28;20038;-75
2022/04/14 10:48:44;;;;;;;6.75;3.92;;;20.10;81.10;;;;;;4997115;28;20026;-74
2022/04/14 10:51:27;;;;;;;12.75;3.95;;;19.90;81.20;;;;;;4998231;28;20128;-75
2022/04/14 10:54:01;;;;;;;6.78;4.03;;;20.00;81.60;;;;;;5001719;28;20096;-75
2022/04/14 10:56:44;;;;;;;9.82;3.53;;;20.40;81.70;;;;;;4998873;28;20033;-75
2022/04/14 10:59:12;;;;;;;6.38;4.07;;;20.60;80.80;;;;;;5001397;28;20030;-74
2022/04/14 11:01:50;;;;;;;7.88;4.13;;;20.80;79.50;;;;;;5003895;28;20120;-75
2022/04/14 11:04:41;;;;;;;6.20;3.17;;;21.20;79.20;;;;;;5000483;28;20050;-75
2022/04/14 11:07:10;;;;;;;12.75;3.83;;;21.00;80.20;;;;;;5000657;28;20030;-74
2022/04/14 11:09:38;;;;;;;6.63;3.22;;;21.20;80.00;;;;;;4996575;28;20907;-74
2022/04/14 11:12:05;;;;;;;7.30;3.63;;;21.30;80.00;;;;;;4990641;28;21611;-74
2022/04/14 11:14:57;;;;;;;6.20;3.72;;;21.50;79.80;;;;;;4996241;28;20049;-75
2022/04/14 11:17:37;;;;;;;11.75;3.75;;;21.50;80.30;;;;;;4996624;28;20057;-75
2022/04/14 11:20:21;;;;;;;6.13;2.97;;;21.40;78.90;;;;;;4996335;28;20046;-74
2022/04/14 11:23:07;;;;;;;7.70;2.80;;;21.70;80.20;;;;;;4998517;28;20041;-75
2022/04/14 11:25:42;;;;;;;14.25;4.45;;;21.80;79.50;;;;;;4988194;28;20462;-75
2022/04/14 11:28:30;;;;;;;6.80;3.03;;;22.00;80.00;;;;;;4996775;28;20395;-75
2022/04/14 11:31:15;;;;;;;5.72;2.80;;;21.90;78.70;;;;;;4994585;28;21027;-74
2022/04/14 11:33:44;;;;;;;;;;;21.70;77.30;;;;;;4976925;28;20142;-75
2022/04/14 11:36:20;;;;;;;4.53;2.60;;;22.00;76.40;;;;;;4978509;28;19917;-75
2022/04/14 11:39:04;;;;;;;8.10;3.20;;;21.90;76.70;;;;;;4986715;28;20153;-75
2022/04/14 11:41:37;;;;;;;6.18;2.72;;;21.80;76.90;;;;;;5004167;28;20101;-73
2022/04/14 11:44:08;;;;;;;6.30;3.35;;;22.10;77.90;;;;;;5000565;28;20549;-73
2022/04/14 11:46:38;;;;;;;7.47;2.45;;;22.30;78.50;;;;;;4996042;28;20030;-74
2022/04/14 11:49:06;;;;;;;6.53;3.15;;;22.40;78.40;;;;;;4994912;28;20130;-74
2022/04/14 11:51:31;;;;;;;6.03;2.72;;;22.40;78.60;;;;;;4980052;28;20034;-74
2022/04/14 11:53:57;;;;;;;7.57;3.40;;;22.20;78.50;;;;;;4978985;28;20068;-73
2022/04/14 11:56:26;;;;;;;5.78;2.40;;;22.20;78.10;;;;;;4976520;28;20652;-73
2022/04/14 11:58:53;;;;;;;8.00;2.78;;;22.10;77.30;;;;;;4985596;28;20027;-74
2022/04/14 12:01:19;;;;;;;6.68;2.40;;;22.30;77.00;;;;;;4996032;28;20034;-74
2022/04/14 12:03:44;;;;;;;6.57;2.60;;;22.70;76.20;;;;;;4981544;28;20101;-74
2022/04/14 12:06:14;;;;;;;4.78;2.20;;;22.80;76.50;;;;;;4977553;28;20056;-74
2022/04/14 12:08:39;;;;;;;9.90;3.50;;;22.90;74.90;;;;;;4994106;28;20017;-74
2022/04/14 12:11:13;;;;;;;11.18;4.28;;;23.00;75.50;;;;;;4992190;28;20030;-74
2022/04/14 12:13:40;;;;;;;5.05;2.03;;;23.10;74.30;;;;;;5002754;28;20046;-73
2022/04/14 12:16:07;;;;;;;7.80;2.47;;;23.00;74.80;;;;;;5000530;28;20038;-74
2022/04/14 12:18:34;;;;;;;4.50;1.92;;;23.20;72.70;;;;;;5000263;28;20040;-74
2022/04/14 12:20:59;;;;;;;4.05;1.55;;;23.20;71.00;;;;;;4997957;28;20146;-74
2022/04/14 12:23:25;;;;;;;3.70;1.58;;;23.30;70.30;;;;;;4997822;28;20092;-74
2022/04/14 12:25:54;;;;;;;7.68;1.65;;;23.10;69.10;;;;;;5002725;28;20280;-74
2022/04/14 12:28:20;;;;;;;5.00;1.85;;;23.00;69.20;;;;;;5003209;28;20045;-74
2022/04/14 12:30:46;;;;;;;5.45;1.45;;;23.60;68.00;;;;;;4983493;28;20104;-75
2022/04/14 12:33:12;;;;;;;6.30;1.42;;;23.90;68.10;;;;;;4988965;28;20077;-74
2022/04/14 12:35:40;;;;;;;4.15;1.48;;;24.10;66.60;;;;;;4994306;28;20492;-75
2022/04/14 12:38:14;;;;;;;9.15;1.52;;;24.00;64.60;;;;;;5002558;28;20095;-74
2022/04/14 12:41:02;;;;;;;3.67;1.15;;;24.20;66.10;;;;;;5007015;28;20845;-74
2022/04/14 12:43:31;;;;;;;2.85;1.38;;;24.60;67.60;;;;;;5002911;28;20154;-75
2022/04/14 12:45:57;;;;;;;6.28;1.67;;;24.70;65.50;;;;;;5005893;28;20018;-74